sensor_id;sensor_type;location;lat;lon;timestamp;temperature;humidity
5246;DHT22;54412;51.206;6.888;2023-04-05T00:00:44;6.00;99.90
5246;DHT22;54412;51.206;6.888;2023-04-05T00:03:10;6.00;99.90
5246;DHT22;54412;51.206;6.888;2023-04-05T00:05:36;5.90;99.90
5246;DHT22;54412;51.206;6.888;2023-04-05T00:08:03;5.90;99.90
5246;DHT22;54412;51.206;6.888;2023-04-05T00:10:33;5.90;99.90
5246;DHT22;54412;51.206;6.888;2023-04-05T00:12:59;5.80;99.90
5246;DHT22;54412;51.206;6.888;2023-04-05T00:15:28;5.80;99.90
5246;DHT22;54412;51.206;6.888;2023-04-05T00:17:56;5.80;99.90
5246;DHT22;54412;51.206;6.888;2023-04-05T00:20:22;5.80;99.90
5246;DHT22;54412;51.206;6.888;2023-04-05T00:22:48;5.70;99.90
5246;DHT22;54412;51.206;6.888;2023-04-05T00:25:15;5.80;99.90
5246;DHT22;54412;51.206;6.888;2023-04-05T00:27:44;5.90;99.90
5246;DHT22;54412;51.206;6.888;2023-04-05T00:30:10;5.80;99.90
5246;DHT22;54412;51.206;6.888;2023-04-05T00:32:36;5.80;99.90
5246;DHT22;54412;51.206;6.888;2023-04-05T00:35:02;5.80;99.90
5246;DHT22;54412;51.206;6.888;2023-04-05T00:37:28;5.90;99.90
5246;DHT22;54412;51.206;6.888;2023-04-05T00:39:54;5.90;99.90
5246;DHT22;54412;51.206;6.888;2023-04-05T00:42:22;5.90;99.90
5246;DHT22;54412;51.206;6.888;2023-04-05T00:44:47;5.80;99.90
5246;DHT22;54412;51.206;6.888;2023-04-05T00:47:13;5.80;99.90
5246;DHT22;54412;51.206;6.888;2023-04-05T00:49:39;5.80;99.90
5246;DHT22;54412;51.206;6.888;2023-04-05T00:52:06;5.90;99.90
5246;DHT22;54412;51.206;6.888;2023-04-05T00:54:33;5.90;99.90
5246;DHT22;54412;51.206;6.888;2023-04-05T00:56:59;5.70;99.90
5246;DHT22;54412;51.206;6.888;2023-04-05T00:59:26;5.70;99.90
5246;DHT22;54412;51.206;6.888;2023-04-05T01:02:01;5.70;99.90
5246;DHT22;54412;51.206;6.888;2023-04-05T01:04:41;5.70;99.90
5246;DHT22;54412;51.206;6.888;2023-04-05T01:10:12;5.80;99.90
5246;DHT22;54412;51.206;6.888;2023-04-05T01:12:42;5.90;99.90
5246;DHT22;54412;51.206;6.888;2023-04-05T01:15:10;5.80;99.90
5246;DHT22;54412;51.206;6.888;2023-04-05T01:17:36;5.90;99.90
5246;DHT22;54412;51.206;6.888;2023-04-05T01:20:08;5.70;99.90
5246;DHT22;54412;51.206;6.888;2023-04-05T01:28:48;5.90;99.90
5246;DHT22;54412;51.206;6.888;2023-04-05T01:31:45;5.90;99.90
5246;DHT22;54412;51.206;6.888;2023-04-05T01:34:26;5.90;99.90
5246;DHT22;54412;51.206;6.888;2023-04-05T01:37:07;5.80;99.90
5246;DHT22;54412;51.206;6.888;2023-04-05T01:39:37;5.80;99.90
5246;DHT22;54412;51.206;6.888;2023-04-05T01:42:03;5.60;99.90
5246;DHT22;54412;51.206;6.888;2023-04-05T01:44:29;5.70;99.90
5246;DHT22;54412;51.206;6.888;2023-04-05T01:46:55;5.60;99.90
5246;DHT22;54412;51.206;6.888;2023-04-05T01:49:22;5.70;99.90
5246;DHT22;54412;51.206;6.888;2023-04-05T01:51:48;5.90;99.90
5246;DHT22;54412;51.206;6.888;2023-04-05T01:54:14;5.90;99.90
5246;DHT22;54412;51.206;6.888;2023-04-05T01:56:40;5.70;99.90
5246;DHT22;54412;51.206;6.888;2023-04-05T01:59:06;5.70;99.90
5246;DHT22;54412;51.206;6.888;2023-04-05T02:01:32;5.70;99.90
5246;DHT22;54412;51.206;6.888;2023-04-05T02:03:57;5.80;99.90
5246;DHT22;54412;51.206;6.888;2023-04-05T02:06:23;5.80;99.90
5246;DHT22;54412;51.206;6.888;2023-04-05T02:08:49;5.80;99.90
5246;DHT22;54412;51.206;6.888;2023-04-05T02:11:15;5.70;99.90
5246;DHT22;54412;51.206;6.888;2023-04-05T02:13:40;5.60;99.90
5246;DHT22;54412;51.206;6.888;2023-04-05T02:16:06;5.60;99.90
5246;DHT22;54412;51.206;6.888;2023-04-05T02:18:32;5.70;99.90
5246;DHT22;54412;51.206;6.888;2023-04-05T02:21:01;5.80;99.90
5246;DHT22;54412;51.206;6.888;2023-04-05T02:23:29;5.70;99.90
5246;DHT22;54412;51.206;6.888;2023-04-05T02:25:57;5.80;99.90
5246;DHT22;54412;51.206;6.888;2023-04-05T02:28:23;5.70;99.90
5246;DHT22;54412;51.206;6.888;2023-04-05T02:30:49;5.70;99.90
5246;DHT22;54412;51.206;6.888;2023-04-05T02:33:14;5.70;99.90
5246;DHT22;54412;51.206;6.888;2023-04-05T02:35:40;5.70;99.90
5246;DHT22;54412;51.206;6.888;2023-04-05T02:38:06;5.50;99.90
5246;DHT22;54412;51.206;6.888;2023-04-05T02:40:33;5.40;99.90
5246;DHT22;54412;51.206;6.888;2023-04-05T02:42:59;5.50;99.90
5246;DHT22;54412;51.206;6.888;2023-04-05T02:45:26;5.30;99.90
5246;DHT22;54412;51.206;6.888;2023-04-05T02:47:55;5.30;99.90
5246;DHT22;54412;51.206;6.888;2023-04-05T02:50:21;5.40;99.90
5246;DHT22;54412;51.206;6.888;2023-04-05T02:52:48;5.40;99.90
5246;DHT22;54412;51.206;6.888;2023-04-05T02:55:16;5.40;99.90
5246;DHT22;54412;51.206;6.888;2023-04-05T02:57:43;5.40;99.90
5246;DHT22;54412;51.206;6.888;2023-04-05T03:00:09;5.40;99.90
5246;DHT22;54412;51.206;6.888;2023-04-05T03:02:36;5.30;99.90
5246;DHT22;54412;51.206;6.888;2023-04-05T03:05:04;5.20;99.90
5246;DHT22;54412;51.206;6.888;2023-04-05T03:07:30;5.10;99.90
5246;DHT22;54412;51.206;6.888;2023-04-05T03:09:57;5.10;99.90
5246;DHT22;54412;51.206;6.888;2023-04-05T03:12:23;5.20;99.90
5246;DHT22;54412;51.206;6.888;2023-04-05T03:14:49;5.20;99.90
5246;DHT22;54412;51.206;6.888;2023-04-05T03:17:15;5.10;99.90
5246;DHT22;54412;51.206;6.888;2023-04-05T03:19:41;5.20;99.90
5246;DHT22;54412;51.206;6.888;2023-04-05T03:22:07;5.10;99.90
5246;DHT22;54412;51.206;6.888;2023-04-05T03:24:33;5.00;99.90
5246;DHT22;54412;51.206;6.888;2023-04-05T03:27:02;5.00;99.90
5246;DHT22;54412;51.206;6.888;2023-04-05T03:29:30;5.00;99.90
5246;DHT22;54412;51.206;6.888;2023-04-05T03:31:56;5.00;99.90
5246;DHT22;54412;51.206;6.888;2023-04-05T03:34:23;4.90;99.90
5246;DHT22;54412;51.206;6.888;2023-04-05T03:36:54;4.80;99.90
5246;DHT22;54412;51.206;6.888;2023-04-05T03:39:20;4.80;99.90
5246;DHT22;54412;51.206;6.888;2023-04-05T03:41:45;4.80;99.90
5246;DHT22;54412;51.206;6.888;2023-04-05T03:44:11;4.70;99.90
5246;DHT22;54412;51.206;6.888;2023-04-05T03:46:37;4.80;99.90
5246;DHT22;54412;51.206;6.888;2023-04-05T03:49:03;4.70;99.90
5246;DHT22;54412;51.206;6.888;2023-04-05T03:51:30;4.70;99.90
5246;DHT22;54412;51.206;6.888;2023-04-05T03:53:56;4.70;99.90
5246;DHT22;54412;51.206;6.888;2023-04-05T03:56:22;4.70;99.90
5246;DHT22;54412;51.206;6.888;2023-04-05T03:58:48;4.70;99.90
5246;DHT22;54412;51.206;6.888;2023-04-05T04:01:14;4.70;99.90
5246;DHT22;54412;51.206;6.888;2023-04-05T04:03:40;4.70;99.90
5246;DHT22;54412;51.206;6.888;2023-04-05T04:06:06;4.70;99.90
5246;DHT22;54412;51.206;6.888;2023-04-05T04:08:32;4.70;99.90
5246;DHT22;54412;51.206;6.888;2023-04-05T04:10:58;4.70;99.90
5246;DHT22;54412;51.206;6.888;2023-04-05T04:13:24;4.70;99.90
5246;DHT22;54412;51.206;6.888;2023-04-05T04:15:50;4.60;99.90
5246;DHT22;54412;51.206;6.888;2023-04-05T04:18:16;4.60;99.90
5246;DHT22;54412;51.206;6.888;2023-04-05T04:20:42;4.60;99.90
5246;DHT22;54412;51.206;6.888;2023-04-05T04:23:08;4.30;99.90
5246;DHT22;54412;51.206;6.888;2023-04-05T04:25:35;4.40;99.90
5246;DHT22;54412;51.206;6.888;2023-04-05T04:28:03;4.40;99.90
5246;DHT22;54412;51.206;6.888;2023-04-05T04:30:31;4.50;99.90
5246;DHT22;54412;51.206;6.888;2023-04-05T04:32:59;4.50;99.90
5246;DHT22;54412;51.206;6.888;2023-04-05T04:35:29;4.40;99.90
5246;DHT22;54412;51.206;6.888;2023-04-05T04:38:02;4.40;99.90
5246;DHT22;54412;51.206;6.888;2023-04-05T04:40:32;4.40;99.90
5246;DHT22;54412;51.206;6.888;2023-04-05T04:43:12;4.40;99.90
5246;DHT22;54412;51.206;6.888;2023-04-05T04:45:44;4.50;99.90
5246;DHT22;54412;51.206;6.888;2023-04-05T04:48:14;4.40;99.90
5246;DHT22;54412;51.206;6.888;2023-04-05T04:50:45;4.40;99.90
5246;DHT22;54412;51.206;6.888;2023-04-05T04:53:12;4.40;99.90
5246;DHT22;54412;51.206;6.888;2023-04-05T04:55:38;4.30;99.90
5246;DHT22;54412;51.206;6.888;2023-04-05T04:58:08;4.20;99.90
5246;DHT22;54412;51.206;6.888;2023-04-05T05:00:40;4.10;99.90
5246;DHT22;54412;51.206;6.888;2023-04-05T05:03:09;4.10;99.90
5246;DHT22;54412;51.206;6.888;2023-04-05T05:05:44;4.10;99.90
5246;DHT22;54412;51.206;6.888;2023-04-05T05:08:11;3.90;99.90
5246;DHT22;54412;51.206;6.888;2023-04-05T05:10:38;3.90;99.90
5246;DHT22;54412;51.206;6.888;2023-04-05T05:13:04;4.00;99.90
5246;DHT22;54412;51.206;6.888;2023-04-05T05:15:30;4.00;99.90
5246;DHT22;54412;51.206;6.888;2023-04-05T05:17:55;4.10;99.90
5246;DHT22;54412;51.206;6.888;2023-04-05T05:20:23;4.20;99.90
5246;DHT22;54412;51.206;6.888;2023-04-05T05:22:49;4.20;99.90
5246;DHT22;54412;51.206;6.888;2023-04-05T05:25:15;4.00;99.90
5246;DHT22;54412;51.206;6.888;2023-04-05T05:27:41;4.10;99.90
5246;DHT22;54412;51.206;6.888;2023-04-05T05:30:07;3.90;99.90
5246;DHT22;54412;51.206;6.888;2023-04-05T05:32:33;3.80;99.90
5246;DHT22;54412;51.206;6.888;2023-04-05T05:34:59;4.00;99.90
5246;DHT22;54412;51.206;6.888;2023-04-05T05:37:30;4.10;99.90
5246;DHT22;54412;51.206;6.888;2023-04-05T05:39:56;4.20;99.90
5246;DHT22;54412;51.206;6.888;2023-04-05T05:42:22;4.20;99.90
5246;DHT22;54412;51.206;6.888;2023-04-05T05:44:48;4.20;99.90
5246;DHT22;54412;51.206;6.888;2023-04-05T05:47:13;4.20;99.90
5246;DHT22;54412;51.206;6.888;2023-04-05T05:49:39;4.10;99.90
5246;DHT22;54412;51.206;6.888;2023-04-05T05:52:05;4.10;99.90
5246;DHT22;54412;51.206;6.888;2023-04-05T05:54:31;4.00;99.90
5246;DHT22;54412;51.206;6.888;2023-04-05T05:56:56;3.90;99.90
5246;DHT22;54412;51.206;6.888;2023-04-05T05:59:23;4.00;99.90
5246;DHT22;54412;51.206;6.888;2023-04-05T06:01:49;4.10;99.90
5246;DHT22;54412;51.206;6.888;2023-04-05T06:04:16;4.10;99.90
5246;DHT22;54412;51.206;6.888;2023-04-05T06:06:42;4.20;99.90
5246;DHT22;54412;51.206;6.888;2023-04-05T06:09:09;4.30;99.90
5246;DHT22;54412;51.206;6.888;2023-04-05T06:11:35;4.20;99.90
5246;DHT22;54412;51.206;6.888;2023-04-05T06:14:01;4.30;99.90
5246;DHT22;54412;51.206;6.888;2023-04-05T06:16:27;4.40;99.90
5246;DHT22;54412;51.206;6.888;2023-04-05T06:18:55;4.50;99.90
5246;DHT22;54412;51.206;6.888;2023-04-05T06:21:22;4.60;99.90
5246;DHT22;54412;51.206;6.888;2023-04-05T06:23:48;4.60;99.90
5246;DHT22;54412;51.206;6.888;2023-04-05T06:26:18;4.80;99.90
5246;DHT22;54412;51.206;6.888;2023-04-05T06:28:48;4.90;99.90
5246;DHT22;54412;51.206;6.888;2023-04-05T06:31:15;4.90;99.90
5246;DHT22;54412;51.206;6.888;2023-04-05T06:33:42;5.00;99.90
5246;DHT22;54412;51.206;6.888;2023-04-05T06:36:09;5.20;99.90
5246;DHT22;54412;51.206;6.888;2023-04-05T06:38:34;5.30;99.90
5246;DHT22;54412;51.206;6.888;2023-04-05T06:41:01;5.40;99.90
5246;DHT22;54412;51.206;6.888;2023-04-05T06:43:27;5.60;99.90
5246;DHT22;54412;51.206;6.888;2023-04-05T06:45:55;5.80;99.90
5246;DHT22;54412;51.206;6.888;2023-04-05T06:48:21;6.00;99.90
5246;DHT22;54412;51.206;6.888;2023-04-05T06:50:46;5.90;99.90
5246;DHT22;54412;51.206;6.888;2023-04-05T06:53:21;6.00;99.90
5246;DHT22;54412;51.206;6.888;2023-04-05T06:55:49;6.10;99.90
5246;DHT22;54412;51.206;6.888;2023-04-05T06:58:15;6.20;99.90
5246;DHT22;54412;51.206;6.888;2023-04-05T07:00:41;6.40;99.90
5246;DHT22;54412;51.206;6.888;2023-04-05T07:03:07;6.40;99.90
5246;DHT22;54412;51.206;6.888;2023-04-05T07:05:32;6.50;99.90
5246;DHT22;54412;51.206;6.888;2023-04-05T07:07:58;6.40;99.90
5246;DHT22;54412;51.206;6.888;2023-04-05T07:10:24;6.40;99.90
5246;DHT22;54412;51.206;6.888;2023-04-05T07:12:50;6.60;99.90
5246;DHT22;54412;51.206;6.888;2023-04-05T07:15:15;6.60;99.90
5246;DHT22;54412;51.206;6.888;2023-04-05T07:17:41;6.70;99.90
5246;DHT22;54412;51.206;6.888;2023-04-05T07:20:07;6.80;99.90
5246;DHT22;54412;51.206;6.888;2023-04-05T07:22:34;7.00;99.90
5246;DHT22;54412;51.206;6.888;2023-04-05T07:25:00;6.90;99.90
5246;DHT22;54412;51.206;6.888;2023-04-05T07:27:28;6.70;99.90
5246;DHT22;54412;51.206;6.888;2023-04-05T07:29:55;6.80;99.90
5246;DHT22;54412;51.206;6.888;2023-04-05T07:32:21;7.00;99.90
5246;DHT22;54412;51.206;6.888;2023-04-05T07:34:47;7.10;99.90
5246;DHT22;54412;51.206;6.888;2023-04-05T07:37:12;7.20;99.90
5246;DHT22;54412;51.206;6.888;2023-04-05T07:39:38;7.30;99.90
5246;DHT22;54412;51.206;6.888;2023-04-05T07:42:04;7.40;99.90
5246;DHT22;54412;51.206;6.888;2023-04-05T07:44:30;7.50;99.90
5246;DHT22;54412;51.206;6.888;2023-04-05T07:46:56;7.60;99.90
5246;DHT22;54412;51.206;6.888;2023-04-05T07:49:25;7.50;99.90
5246;DHT22;54412;51.206;6.888;2023-04-05T07:51:55;7.60;99.90
5246;DHT22;54412;51.206;6.888;2023-04-05T07:54:22;7.70;99.90
5246;DHT22;54412;51.206;6.888;2023-04-05T07:56:48;7.60;99.90
5246;DHT22;54412;51.206;6.888;2023-04-05T07:59:15;7.80;99.90
5246;DHT22;54412;51.206;6.888;2023-04-05T08:01:41;7.80;99.90
5246;DHT22;54412;51.206;6.888;2023-04-05T08:04:06;7.80;99.90
5246;DHT22;54412;51.206;6.888;2023-04-05T08:06:32;8.20;99.90
5246;DHT22;54412;51.206;6.888;2023-04-05T08:08:58;8.50;99.90
5246;DHT22;54412;51.206;6.888;2023-04-05T08:11:23;8.50;99.90
5246;DHT22;54412;51.206;6.888;2023-04-05T08:13:50;8.60;99.90
5246;DHT22;54412;51.206;6.888;2023-04-05T08:16:18;8.60;99.90
5246;DHT22;54412;51.206;6.888;2023-04-05T08:18:44;8.70;99.90
5246;DHT22;54412;51.206;6.888;2023-04-05T08:21:10;8.80;99.90
5246;DHT22;54412;51.206;6.888;2023-04-05T08:23:36;8.70;99.90
5246;DHT22;54412;51.206;6.888;2023-04-05T08:26:01;9.10;99.90
5246;DHT22;54412;51.206;6.888;2023-04-05T08:28:27;9.10;99.90
5246;DHT22;54412;51.206;6.888;2023-04-05T08:30:53;9.30;99.90
5246;DHT22;54412;51.206;6.888;2023-04-05T08:33:20;9.20;99.90
5246;DHT22;54412;51.206;6.888;2023-04-05T08:35:46;9.20;99.90
5246;DHT22;54412;51.206;6.888;2023-04-05T08:38:12;9.40;99.90
5246;DHT22;54412;51.206;6.888;2023-04-05T08:40:43;9.60;99.90
5246;DHT22;54412;51.206;6.888;2023-04-05T08:43:44;9.60;99.90
5246;DHT22;54412;51.206;6.888;2023-04-05T08:46:13;9.50;99.40
5246;DHT22;54412;51.206;6.888;2023-04-05T08:48:41;9.80;99.40
5246;DHT22;54412;51.206;6.888;2023-04-05T08:51:08;9.80;98.20
5246;DHT22;54412;51.206;6.888;2023-04-05T08:53:34;10.20;99.40
5246;DHT22;54412;51.206;6.888;2023-04-05T08:56:01;10.70;98.10
5246;DHT22;54412;51.206;6.888;2023-04-05T08:58:28;10.70;95.80
5246;DHT22;54412;51.206;6.888;2023-04-05T09:00:56;10.80;97.10
5246;DHT22;54412;51.206;6.888;2023-04-05T09:03:27;11.30;96.40
5246;DHT22;54412;51.206;6.888;2023-04-05T09:05:57;11.60;95.00
5246;DHT22;54412;51.206;6.888;2023-04-05T09:08:24;11.10;92.10
5246;DHT22;54412;51.206;6.888;2023-04-05T09:10:50;10.80;94.00
5246;DHT22;54412;51.206;6.888;2023-04-05T09:13:16;11.30;93.60
5246;DHT22;54412;51.206;6.888;2023-04-05T09:15:42;11.40;93.70
5246;DHT22;54412;51.206;6.888;2023-04-05T09:18:09;11.20;91.40
5246;DHT22;54412;51.206;6.888;2023-04-05T09:20:35;11.30;93.00
5246;DHT22;54412;51.206;6.888;2023-04-05T09:23:00;11.80;92.90
5246;DHT22;54412;51.206;6.888;2023-04-05T09:25:39;12.00;92.00
5246;DHT22;54412;51.206;6.888;2023-04-05T09:28:07;12.00;92.00
5246;DHT22;54412;51.206;6.888;2023-04-05T09:30:34;12.30;90.60
5246;DHT22;54412;51.206;6.888;2023-04-05T09:33:03;12.10;90.20
5246;DHT22;54412;51.206;6.888;2023-04-05T09:35:32;12.00;87.30
5246;DHT22;54412;51.206;6.888;2023-04-05T09:37:59;12.50;90.10
5246;DHT22;54412;51.206;6.888;2023-04-05T09:40:46;12.80;89.40
5246;DHT22;54412;51.206;6.888;2023-04-05T09:46:01;13.00;86.60
5246;DHT22;54412;51.206;6.888;2023-04-05T09:48:48;13.40;86.90
5246;DHT22;54412;51.206;6.888;2023-04-05T09:51:15;13.50;84.80
5246;DHT22;54412;51.206;6.888;2023-04-05T09:53:59;13.50;84.90
5246;DHT22;54412;51.206;6.888;2023-04-05T09:56:30;13.60;80.60
5246;DHT22;54412;51.206;6.888;2023-04-05T09:59:10;13.20;80.00
5246;DHT22;54412;51.206;6.888;2023-04-05T10:01:37;12.60;78.50
5246;DHT22;54412;51.206;6.888;2023-04-05T10:04:07;12.30;79.50
5246;DHT22;54412;51.206;6.888;2023-04-05T10:06:41;12.50;81.20
5246;DHT22;54412;51.206;6.888;2023-04-05T10:09:08;12.60;81.10
5246;DHT22;54412;51.206;6.888;2023-04-05T10:11:36;12.10;79.80
5246;DHT22;54412;51.206;6.888;2023-04-05T10:14:04;12.40;80.80
5246;DHT22;54412;51.206;6.888;2023-04-05T10:16:42;12.80;81.50
5246;DHT22;54412;51.206;6.888;2023-04-05T10:22:24;12.80;79.30
5246;DHT22;54412;51.206;6.888;2023-04-05T10:25:17;13.20;78.50
5246;DHT22;54412;51.206;6.888;2023-04-05T10:27:57;13.30;77.90
5246;DHT22;54412;51.206;6.888;2023-04-05T10:30:35;13.70;77.10
5246;DHT22;54412;51.206;6.888;2023-04-05T10:36:08;13.50;74.50
5246;DHT22;54412;51.206;6.888;2023-04-05T10:39:12;14.00;75.70
5246;DHT22;54412;51.206;6.888;2023-04-05T10:41:52;14.50;75.00
5246;DHT22;54412;51.206;6.888;2023-04-05T10:44:19;14.60;73.30
5246;DHT22;54412;51.206;6.888;2023-04-05T10:46:45;14.10;73.80
5246;DHT22;54412;51.206;6.888;2023-04-05T10:49:21;13.50;75.50
5246;DHT22;54412;51.206;6.888;2023-04-05T10:52:10;14.10;76.90
5246;DHT22;54412;51.206;6.888;2023-04-05T10:54:36;14.10;72.20
5246;DHT22;54412;51.206;6.888;2023-04-05T10:57:04;13.50;70.40
5246;DHT22;54412;51.206;6.888;2023-04-05T10:59:33;13.10;70.60
5246;DHT22;54412;51.206;6.888;2023-04-05T11:02:01;13.10;71.10
5246;DHT22;54412;51.206;6.888;2023-04-05T11:04:28;13.00;73.40
5246;DHT22;54412;51.206;6.888;2023-04-05T11:07:10;13.80;74.90
5246;DHT22;54412;51.206;6.888;2023-04-05T11:10:02;14.30;71.20
5246;DHT22;54412;51.206;6.888;2023-04-05T11:18:10;14.70;72.40
5246;DHT22;54412;51.206;6.888;2023-04-05T11:20:45;14.40;70.70
5246;DHT22;54412;51.206;6.888;2023-04-05T11:23:32;14.60;72.30
5246;DHT22;54412;51.206;6.888;2023-04-05T11:26:51;15.00;72.20
5246;DHT22;54412;51.206;6.888;2023-04-05T11:29:45;15.60;72.70
5246;DHT22;54412;51.206;6.888;2023-04-05T11:32:13;15.90;69.40
5246;DHT22;54412;51.206;6.888;2023-04-05T11:34:41;15.70;66.40
5246;DHT22;54412;51.206;6.888;2023-04-05T11:37:08;15.40;66.30
5246;DHT22;54412;51.206;6.888;2023-04-05T11:39:34;15.50;67.70
5246;DHT22;54412;51.206;6.888;2023-04-05T11:42:10;15.70;66.70
5246;DHT22;54412;51.206;6.888;2023-04-05T11:44:48;16.00;66.50
5246;DHT22;54412;51.206;6.888;2023-04-05T11:47:17;15.20;65.00
5246;DHT22;54412;51.206;6.888;2023-04-05T11:49:49;15.70;65.10
5246;DHT22;54412;51.206;6.888;2023-04-05T11:52:17;15.70;65.00
5246;DHT22;54412;51.206;6.888;2023-04-05T11:54:44;15.20;64.60
5246;DHT22;54412;51.206;6.888;2023-04-05T11:57:21;14.10;65.10
5246;DHT22;54412;51.206;6.888;2023-04-05T11:59:51;13.90;66.70
5246;DHT22;54412;51.206;6.888;2023-04-05T12:02:18;14.40;66.00
5246;DHT22;54412;51.206;6.888;2023-04-05T12:04:52;14.50;65.50
5246;DHT22;54412;51.206;6.888;2023-04-05T12:07:20;14.50;65.50
5246;DHT22;54412;51.206;6.888;2023-04-05T12:10:01;14.20;64.60
5246;DHT22;54412;51.206;6.888;2023-04-05T12:12:38;14.00;68.50
5246;DHT22;54412;51.206;6.888;2023-04-05T12:15:10;13.90;68.50
5246;DHT22;54412;51.206;6.888;2023-04-05T12:17:46;13.50;68.10
5246;DHT22;54412;51.206;6.888;2023-04-05T12:20:22;13.50;71.10
5246;DHT22;54412;51.206;6.888;2023-04-05T12:22:51;13.10;67.60
5246;DHT22;54412;51.206;6.888;2023-04-05T12:25:20;13.20;68.00
5246;DHT22;54412;51.206;6.888;2023-04-05T12:27:46;13.40;69.30
5246;DHT22;54412;51.206;6.888;2023-04-05T12:32:41;14.20;67.50
5246;DHT22;54412;51.206;6.888;2023-04-05T12:35:11;13.50;64.90
5246;DHT22;54412;51.206;6.888;2023-04-05T12:37:41;13.70;65.90
5246;DHT22;54412;51.206;6.888;2023-04-05T12:40:08;14.00;66.50
5246;DHT22;54412;51.206;6.888;2023-04-05T12:42:38;14.20;64.00
5246;DHT22;54412;51.206;6.888;2023-04-05T12:45:10;14.80;65.40
5246;DHT22;54412;51.206;6.888;2023-04-05T12:47:47;15.10;64.00
5246;DHT22;54412;51.206;6.888;2023-04-05T12:50:15;15.00;62.70
5246;DHT22;54412;51.206;6.888;2023-04-05T12:53:20;15.40;62.80
5246;DHT22;54412;51.206;6.888;2023-04-05T12:55:55;15.60;59.40
5246;DHT22;54412;51.206;6.888;2023-04-05T12:58:31;15.40;60.10
5246;DHT22;54412;51.206;6.888;2023-04-05T13:00:59;15.40;60.50
5246;DHT22;54412;51.206;6.888;2023-04-05T13:03:25;15.80;61.20
5246;DHT22;54412;51.206;6.888;2023-04-05T13:05:51;16.50;61.80
5246;DHT22;54412;51.206;6.888;2023-04-05T13:08:18;16.60;61.00
5246;DHT22;54412;51.206;6.888;2023-04-05T13:10:48;16.70;59.80
5246;DHT22;54412;51.206;6.888;2023-04-05T13:13:15;16.50;58.80
5246;DHT22;54412;51.206;6.888;2023-04-05T13:15:42;16.40;59.80
5246;DHT22;54412;51.206;6.888;2023-04-05T13:18:08;16.50;57.50
5246;DHT22;54412;51.206;6.888;2023-04-05T13:20:35;16.70;59.20
5246;DHT22;54412;51.206;6.888;2023-04-05T13:23:00;16.70;58.20
5246;DHT22;54412;51.206;6.888;2023-04-05T13:25:27;16.50;58.30
5246;DHT22;54412;51.206;6.888;2023-04-05T13:27:52;16.30;59.00
5246;DHT22;54412;51.206;6.888;2023-04-05T13:30:18;16.20;59.10
5246;DHT22;54412;51.206;6.888;2023-04-05T13:32:44;16.60;58.80
5246;DHT22;54412;51.206;6.888;2023-04-05T13:35:10;16.40;59.10
5246;DHT22;54412;51.206;6.888;2023-04-05T13:37:36;16.30;59.60
5246;DHT22;54412;51.206;6.888;2023-04-05T13:40:03;16.60;59.10
5246;DHT22;54412;51.206;6.888;2023-04-05T13:42:29;16.60;58.30
5246;DHT22;54412;51.206;6.888;2023-04-05T13:44:55;16.40;58.10
5246;DHT22;54412;51.206;6.888;2023-04-05T13:47:20;16.20;57.60
5246;DHT22;54412;51.206;6.888;2023-04-05T13:49:46;15.80;57.30
5246;DHT22;54412;51.206;6.888;2023-04-05T13:52:12;14.90;57.40
5246;DHT22;54412;51.206;6.888;2023-04-05T13:54:37;15.50;59.90
5246;DHT22;54412;51.206;6.888;2023-04-05T13:57:03;15.60;59.10
5246;DHT22;54412;51.206;6.888;2023-04-05T13:59:29;16.00;59.30
5246;DHT22;54412;51.206;6.888;2023-04-05T14:01:55;16.20;58.50
5246;DHT22;54412;51.206;6.888;2023-04-05T14:04:21;16.00;58.20
5246;DHT22;54412;51.206;6.888;2023-04-05T14:06:47;16.20;58.30
5246;DHT22;54412;51.206;6.888;2023-04-05T14:09:13;15.90;56.00
5246;DHT22;54412;51.206;6.888;2023-04-05T14:11:38;15.60;58.30
5246;DHT22;54412;51.206;6.888;2023-04-05T14:14:04;15.30;58.10
5246;DHT22;54412;51.206;6.888;2023-04-05T14:16:30;14.60;58.00
5246;DHT22;54412;51.206;6.888;2023-04-05T14:18:56;14.40;58.40
5246;DHT22;54412;51.206;6.888;2023-04-05T14:21:23;14.50;60.00
5246;DHT22;54412;51.206;6.888;2023-04-05T14:23:50;14.60;60.00
5246;DHT22;54412;51.206;6.888;2023-04-05T14:26:22;15.10;60.00
5246;DHT22;54412;51.206;6.888;2023-04-05T14:28:51;15.00;59.70
5246;DHT22;54412;51.206;6.888;2023-04-05T14:31:17;15.60;61.90
5246;DHT22;54412;51.206;6.888;2023-04-05T14:33:43;16.00;60.00
5246;DHT22;54412;51.206;6.888;2023-04-05T14:36:09;15.90;60.00
5246;DHT22;54412;51.206;6.888;2023-04-05T14:38:34;15.70;59.10
5246;DHT22;54412;51.206;6.888;2023-04-05T14:41:00;15.60;59.70
5246;DHT22;54412;51.206;6.888;2023-04-05T14:43:26;15.40;58.70
5246;DHT22;54412;51.206;6.888;2023-04-05T14:45:52;14.60;59.00
5246;DHT22;54412;51.206;6.888;2023-04-05T14:48:18;14.40;60.00
5246;DHT22;54412;51.206;6.888;2023-04-05T14:50:43;14.60;60.90
5246;DHT22;54412;51.206;6.888;2023-04-05T14:53:09;15.00;61.90
5246;DHT22;54412;51.206;6.888;2023-04-05T14:55:35;15.00;59.90
5246;DHT22;54412;51.206;6.888;2023-04-05T14:58:01;14.90;59.20
5246;DHT22;54412;51.206;6.888;2023-04-05T15:00:26;15.20;59.30
5246;DHT22;54412;51.206;6.888;2023-04-05T15:02:52;15.10;58.10
5246;DHT22;54412;51.206;6.888;2023-04-05T15:05:18;15.30;58.70
5246;DHT22;54412;51.206;6.888;2023-04-05T15:07:44;15.40;63.30
5246;DHT22;54412;51.206;6.888;2023-04-05T15:10:10;15.30;60.80
5246;DHT22;54412;51.206;6.888;2023-04-05T15:12:35;15.20;60.20
5246;DHT22;54412;51.206;6.888;2023-04-05T15:15:01;15.00;58.90
5246;DHT22;54412;51.206;6.888;2023-04-05T15:17:27;15.10;59.60
5246;DHT22;54412;51.206;6.888;2023-04-05T15:19:53;15.10;59.10
5246;DHT22;54412;51.206;6.888;2023-04-05T15:22:19;14.90;60.00
5246;DHT22;54412;51.206;6.888;2023-04-05T15:24:47;14.90;60.00
5246;DHT22;54412;51.206;6.888;2023-04-05T15:27:13;14.90;60.00
5246;DHT22;54412;51.206;6.888;2023-04-05T15:29:39;15.00;59.90
5246;DHT22;54412;51.206;6.888;2023-04-05T15:32:04;14.10;58.60
5246;DHT22;54412;51.206;6.888;2023-04-05T15:34:31;13.60;60.50
5246;DHT22;54412;51.206;6.888;2023-04-05T15:36:56;13.40;60.90
5246;DHT22;54412;51.206;6.888;2023-04-05T15:39:23;13.20;61.70
5246;DHT22;54412;51.206;6.888;2023-04-05T15:41:50;13.40;62.90
5246;DHT22;54412;51.206;6.888;2023-04-05T15:44:16;13.80;62.70
5246;DHT22;54412;51.206;6.888;2023-04-05T15:46:42;13.80;61.10
5246;DHT22;54412;51.206;6.888;2023-04-05T15:49:08;13.50;60.20
5246;DHT22;54412;51.206;6.888;2023-04-05T15:51:35;13.50;61.00
5246;DHT22;54412;51.206;6.888;2023-04-05T15:54:04;13.50;61.00
5246;DHT22;54412;51.206;6.888;2023-04-05T15:56:29;13.20;60.90
5246;DHT22;54412;51.206;6.888;2023-04-05T15:58:56;13.10;61.60
5246;DHT22;54412;51.206;6.888;2023-04-05T16:01:23;13.10;60.70
5246;DHT22;54412;51.206;6.888;2023-04-05T16:03:48;13.40;60.40
5246;DHT22;54412;51.206;6.888;2023-04-05T16:06:14;13.40;61.30
5246;DHT22;54412;51.206;6.888;2023-04-05T16:08:40;13.70;61.30
5246;DHT22;54412;51.206;6.888;2023-04-05T16:11:05;13.70;61.60
5246;DHT22;54412;51.206;6.888;2023-04-05T16:13:33;13.60;60.80
5246;DHT22;54412;51.206;6.888;2023-04-05T16:15:59;13.60;62.90
5246;DHT22;54412;51.206;6.888;2023-04-05T16:18:25;13.20;61.20
5246;DHT22;54412;51.206;6.888;2023-04-05T16:20:54;13.20;61.50
5246;DHT22;54412;51.206;6.888;2023-04-05T16:23:20;13.00;62.20
5246;DHT22;54412;51.206;6.888;2023-04-05T16:25:46;13.10;62.20
5246;DHT22;54412;51.206;6.888;2023-04-05T16:28:12;13.00;62.80